sensor_id;sensor_type;location;lat;lon;timestamp;pressure;altitude;pressure_sealevel;temperature;humidity
41515;BME280;27247;48.020;16.720;2023-02-20T00:00:24;100745.88;;;4.60;87.49
41515;BME280;27247;48.020;16.720;2023-02-20T00:04:35;100748.19;;;4.65;85.81
41515;BME280;27247;48.020;16.720;2023-02-20T00:08:45;100748.91;;;4.67;85.74
41515;BME280;27247;48.020;16.720;2023-02-20T00:12:56;100758.69;;;4.77;84.33
41515;BME280;27247;48.020;16.720;2023-02-20T00:17:06;100757.38;;;4.83;83.65
41515;BME280;27247;48.020;16.720;2023-02-20T00:21:16;100756.91;;;4.89;84.04
41515;BME280;27247;48.020;16.720;2023-02-20T00:25:27;100765.81;;;4.88;82.95
41515;BME280;27247;48.020;16.720;2023-02-20T00:29:37;100765.59;;;4.91;82.58
41515;BME280;27247;48.020;16.720;2023-02-20T00:33:48;100754.28;;;4.89;82.11
41515;BME280;27247;48.020;16.720;2023-02-20T00:37:58;100767.41;;;4.91;82.08
41515;BME280;27247;48.020;16.720;2023-02-20T00:42:09;100768.84;;;4.95;81.64
41515;BME280;27247;48.020;16.720;2023-02-20T00:46:19;100776.69;;;5.07;82.29
41515;BME280;27247;48.020;16.720;2023-02-20T00:50:29;100778.63;;;5.05;82.28
41515;BME280;27247;48.020;16.720;2023-02-20T00:54:40;100775.88;;;5.18;81.15
41515;BME280;27247;48.020;16.720;2023-02-20T00:58:50;100774.34;;;5.27;80.35
41515;BME280;27247;48.020;16.720;2023-02-20T01:03:01;100772.19;;;5.21;80.53
41515;BME280;27247;48.020;16.720;2023-02-20T01:07:12;100775.31;;;5.26;79.00
41515;BME280;27247;48.020;16.720;2023-02-20T01:11:22;100770.88;;;5.26;78.30
41515;BME280;27247;48.020;16.720;2023-02-20T01:15:33;100764.00;;;5.24;79.22
41515;BME280;27247;48.020;16.720;2023-02-20T01:19:43;100772.19;;;5.21;79.31
41515;BME280;27247;48.020;16.720;2023-02-20T01:23:53;100772.91;;;5.23;79.17
41515;BME280;27247;48.020;16.720;2023-02-20T01:28:04;100765.88;;;5.10;79.91
41515;BME280;27247;48.020;16.720;2023-02-20T01:32:14;100769.84;;;5.16;80.26
41515;BME280;27247;48.020;16.720;2023-02-20T01:36:25;100762.81;;;5.28;81.03
41515;BME280;27247;48.020;16.720;2023-02-20T01:40:38;100771.53;;;5.17;82.04
41515;BME280;27247;48.020;16.720;2023-02-20T01:44:49;100773.03;;;5.21;82.63
41515;BME280;27247;48.020;16.720;2023-02-20T01:49:21;100779.31;;;5.31;84.50
41515;BME280;27247;48.020;16.720;2023-02-20T01:53:32;100775.19;;;5.27;84.41
41515;BME280;27247;48.020;16.720;2023-02-20T01:57:48;100777.44;;;5.09;84.59
41515;BME280;27247;48.020;16.720;2023-02-20T02:02:00;100777.63;;;4.95;84.66
41515;BME280;27247;48.020;16.720;2023-02-20T02:06:12;100779.56;;;4.93;84.09
41515;BME280;27247;48.020;16.720;2023-02-20T02:10:27;100784.25;;;4.31;87.38
41515;BME280;27247;48.020;16.720;2023-02-20T02:14:39;100775.53;;;4.41;89.23
41515;BME280;27247;48.020;16.720;2023-02-20T02:38:13;100763.63;;;4.23;89.92
41515;BME280;27247;48.020;16.720;2023-02-20T02:42:45;100766.63;;;4.19;88.36
41515;BME280;27247;48.020;16.720;2023-02-20T02:47:03;100763.38;;;4.02;89.35
41515;BME280;27247;48.020;16.720;2023-02-20T02:51:18;100759.31;;;4.22;88.48
41515;BME280;27247;48.020;16.720;2023-02-20T02:55:31;100759.22;;;4.11;89.33
41515;BME280;27247;48.020;16.720;2023-02-20T02:59:42;100758.94;;;4.03;89.89
41515;BME280;27247;48.020;16.720;2023-02-20T03:03:55;100764.63;;;3.73;90.51
41515;BME280;27247;48.020;16.720;2023-02-20T03:08:16;100771.56;;;3.87;92.68
41515;BME280;27247;48.020;16.720;2023-02-20T03:12:33;100767.41;;;3.46;94.60
41515;BME280;27247;48.020;16.720;2023-02-20T03:16:48;100773.34;;;3.37;96.06
41515;BME280;27247;48.020;16.720;2023-02-20T03:21:06;100785.38;;;3.41;97.16
41515;BME280;27247;48.020;16.720;2023-02-20T03:25:27;100788.34;;;3.36;98.23
41515;BME280;27247;48.020;16.720;2023-02-20T03:29:40;100781.56;;;3.32;99.48
41515;BME280;27247;48.020;16.720;2023-02-20T03:34:02;100785.47;;;3.52;100.00
41515;BME280;27247;48.020;16.720;2023-02-20T03:38:36;100793.81;;;3.59;100.00
41515;BME280;27247;48.020;16.720;2023-02-20T03:43:10;100779.78;;;3.33;100.00
41515;BME280;27247;48.020;16.720;2023-02-20T03:47:37;100787.13;;;3.02;100.00
41515;BME280;27247;48.020;16.720;2023-02-20T03:51:50;100773.94;;;3.02;100.00
41515;BME280;27247;48.020;16.720;2023-02-20T03:56:13;100783.75;;;3.00;100.00
41515;BME280;27247;48.020;16.720;2023-02-20T04:00:28;100786.06;;;2.92;100.00
41515;BME280;27247;48.020;16.720;2023-02-20T04:04:44;100771.75;;;3.22;100.00
41515;BME280;27247;48.020;16.720;2023-02-20T04:09:11;100780.00;;;3.30;100.00
41515;BME280;27247;48.020;16.720;2023-02-20T04:13:24;100776.81;;;3.50;100.00
41515;BME280;27247;48.020;16.720;2023-02-20T04:17:39;100777.56;;;3.39;100.00
41515;BME280;27247;48.020;16.720;2023-02-20T04:21:54;100765.84;;;3.18;100.00
41515;BME280;27247;48.020;16.720;2023-02-20T04:26:11;100764.84;;;2.94;100.00
41515;BME280;27247;48.020;16.720;2023-02-20T04:30:22;100761.88;;;2.85;100.00
41515;BME280;27247;48.020;16.720;2023-02-20T04:34:32;100742.75;;;2.82;100.00
41515;BME280;27247;48.020;16.720;2023-02-20T04:38:43;100734.94;;;2.68;100.00
41515;BME280;27247;48.020;16.720;2023-02-20T04:42:53;100728.38;;;2.61;100.00
41515;BME280;27247;48.020;16.720;2023-02-20T04:47:06;100738.72;;;2.64;100.00
41515;BME280;27247;48.020;16.720;2023-02-20T04:51:16;100747.28;;;2.67;100.00
41515;BME280;27247;48.020;16.720;2023-02-20T04:55:27;100746.69;;;2.89;100.00
41515;BME280;27247;48.020;16.720;2023-02-20T04:59:38;100744.47;;;3.08;100.00
41515;BME280;27247;48.020;16.720;2023-02-20T05:03:48;100740.81;;;3.24;100.00
41515;BME280;27247;48.020;16.720;2023-02-20T05:08:01;100737.63;;;3.44;100.00
41515;BME280;27247;48.020;16.720;2023-02-20T05:12:12;100735.81;;;3.44;100.00
41515;BME280;27247;48.020;16.720;2023-02-20T05:16:22;100740.97;;;3.59;100.00
41515;BME280;27247;48.020;16.720;2023-02-20T05:20:32;100738.22;;;3.60;100.00
41515;BME280;27247;48.020;16.720;2023-02-20T05:25:01;100744.25;;;3.62;100.00
41515;BME280;27247;48.020;16.720;2023-02-20T05:29:12;100754.81;;;3.49;100.00
41515;BME280;27247;48.020;16.720;2023-02-20T05:33:22;100758.72;;;3.57;100.00
41515;BME280;27247;48.020;16.720;2023-02-20T05:37:33;100757.38;;;3.38;100.00
41515;BME280;27247;48.020;16.720;2023-02-20T05:41:43;100750.84;;;3.18;100.00
41515;BME280;27247;48.020;16.720;2023-02-20T05:45:54;100743.25;;;3.14;100.00
41515;BME280;27247;48.020;16.720;2023-02-20T05:50:04;100755.38;;;3.16;100.00
41515;BME280;27247;48.020;16.720;2023-02-20T05:54:16;100746.72;;;3.14;100.00
41515;BME280;27247;48.020;16.720;2023-02-20T05:58:26;100750.06;;;3.04;100.00
41515;BME280;27247;48.020;16.720;2023-02-20T06:02:37;100738.44;;;2.94;100.00
41515;BME280;27247;48.020;16.720;2023-02-20T06:06:47;100731.88;;;2.74;100.00
41515;BME280;27247;48.020;16.720;2023-02-20T06:10:57;100738.22;;;2.71;100.00
41515;BME280;27247;48.020;16.720;2023-02-20T06:15:08;100746.22;;;2.70;100.00
41515;BME280;27247;48.020;16.720;2023-02-20T06:19:21;100748.56;;;2.74;100.00
41515;BME280;27247;48.020;16.720;2023-02-20T06:23:32;100744.13;;;2.75;100.00
41515;BME280;27247;48.020;16.720;2023-02-20T06:27:42;100741.06;;;2.81;100.00
41515;BME280;27247;48.020;16.720;2023-02-20T06:31:52;100751.13;;;2.88;100.00
41515;BME280;27247;48.020;16.720;2023-02-20T06:36:04;100755.34;;;2.91;100.00
41515;BME280;27247;48.020;16.720;2023-02-20T06:40:14;100760.84;;;3.01;100.00
41515;BME280;27247;48.020;16.720;2023-02-20T06:44:25;100750.91;;;3.04;100.00
41515;BME280;27247;48.020;16.720;2023-02-20T06:48:43;100760.44;;;3.19;100.00
41515;BME280;27247;48.020;16.720;2023-02-20T06:52:54;100756.66;;;3.24;100.00
41515;BME280;27247;48.020;16.720;2023-02-20T06:57:04;100764.78;;;3.46;100.00
41515;BME280;27247;48.020;16.720;2023-02-20T07:01:16;100763.81;;;3.60;100.00
41515;BME280;27247;48.020;16.720;2023-02-20T07:05:27;100769.16;;;3.71;100.00
41515;BME280;27247;48.020;16.720;2023-02-20T07:09:38;100757.22;;;3.65;100.00
41515;BME280;27247;48.020;16.720;2023-02-20T07:13:49;100753.41;;;3.69;100.00
41515;BME280;27247;48.020;16.720;2023-02-20T07:17:59;100735.44;;;3.74;100.00
41515;BME280;27247;48.020;16.720;2023-02-20T07:22:10;100736.78;;;3.80;100.00
41515;BME280;27247;48.020;16.720;2023-02-20T07:26:22;100740.81;;;4.09;100.00
41515;BME280;27247;48.020;16.720;2023-02-20T07:30:33;100736.56;;;4.20;100.00
41515;BME280;27247;48.020;16.720;2023-02-20T07:34:43;100727.38;;;4.36;100.00
41515;BME280;27247;48.020;16.720;2023-02-20T07:38:55;100702.78;;;4.47;100.00
41515;BME280;27247;48.020;16.720;2023-02-20T07:43:06;100696.91;;;4.55;100.00
41515;BME280;27247;48.020;16.720;2023-02-20T07:47:16;100703.97;;;4.89;100.00
41515;BME280;27247;48.020;16.720;2023-02-20T07:51:27;100694.59;;;5.07;100.00
41515;BME280;27247;48.020;16.720;2023-02-20T07:55:37;100686.75;;;5.17;100.00
41515;BME280;27247;48.020;16.720;2023-02-20T07:59:47;100688.47;;;5.29;100.00
41515;BME280;27247;48.020;16.720;2023-02-20T08:03:58;100703.66;;;5.50;100.00
41515;BME280;27247;48.020;16.720;2023-02-20T08:08:08;100696.16;;;5.66;100.00
41515;BME280;27247;48.020;16.720;2023-02-20T08:12:18;100698.66;;;5.78;100.00
41515;BME280;27247;48.020;16.720;2023-02-20T08:16:29;100704.66;;;6.03;100.00
41515;BME280;27247;48.020;16.720;2023-02-20T08:20:40;100700.03;;;6.27;100.00
41515;BME280;27247;48.020;16.720;2023-02-20T08:24:50;100676.16;;;6.69;100.00
41515;BME280;27247;48.020;16.720;2023-02-20T08:29:01;100687.72;;;7.30;100.00
41515;BME280;27247;48.020;16.720;2023-02-20T08:33:11;100667.56;;;7.97;99.34
41515;BME280;27247;48.020;16.720;2023-02-20T08:37:21;100648.84;;;8.47;92.17
41515;BME280;27247;48.020;16.720;2023-02-20T08:41:32;100649.19;;;8.90;88.68
41515;BME280;27247;48.020;16.720;2023-02-20T08:45:42;100661.13;;;9.23;87.54
41515;BME280;27247;48.020;16.720;2023-02-20T08:49:52;100658.13;;;9.46;85.72
41515;BME280;27247;48.020;16.720;2023-02-20T08:54:03;100658.09;;;9.73;87.89
41515;BME280;27247;48.020;16.720;2023-02-20T08:58:17;100666.22;;;9.99;85.76
41515;BME280;27247;48.020;16.720;2023-02-20T09:02:28;100656.03;;;10.30;84.65
41515;BME280;27247;48.020;16.720;2023-02-20T09:06:39;100657.16;;;10.63;84.96
41515;BME280;27247;48.020;16.720;2023-02-20T09:10:49;100653.34;;;10.66;83.31
41515;BME280;27247;48.020;16.720;2023-02-20T09:15:00;100651.50;;;10.66;82.78
41515;BME280;27247;48.020;16.720;2023-02-20T09:19:10;100633.56;;;10.59;79.73
41515;BME280;27247;48.020;16.720;2023-02-20T09:23:22;100629.13;;;10.67;82.45
41515;BME280;27247;48.020;16.720;2023-02-20T09:27:34;100623.78;;;10.67;81.16
41515;BME280;27247;48.020;16.720;2023-02-20T09:31:45;100633.09;;;10.89;82.35
41515;BME280;27247;48.020;16.720;2023-02-20T09:35:55;100609.81;;;11.07;80.06
41515;BME280;27247;48.020;16.720;2023-02-20T09:40:06;100612.16;;;11.44;79.43
41515;BME280;27247;48.020;16.720;2023-02-20T09:53:03;100584.16;;;11.81;76.26
41515;BME280;27247;48.020;16.720;2023-02-20T09:57:19;100581.84;;;12.02;77.80
41515;BME280;27247;48.020;16.720;2023-02-20T10:01:33;100578.00;;;11.97;74.55
41515;BME280;27247;48.020;16.720;2023-02-20T10:05:44;100580.00;;;12.11;76.59
41515;BME280;27247;48.020;16.720;2023-02-20T10:09:56;100586.38;;;12.10;75.88
41515;BME280;27247;48.020;16.720;2023-02-20T10:19:03;100571.41;;;11.67;77.63
41515;BME280;27247;48.020;16.720;2023-02-20T10:23:45;100571.47;;;11.41;74.28
41515;BME280;27247;48.020;16.720;2023-02-20T10:28:05;100553.84;;;11.22;72.27
41515;BME280;27247;48.020;16.720;2023-02-20T10:32:24;100546.09;;;11.03;74.04
41515;BME280;27247;48.020;16.720;2023-02-20T10:36:40;100537.88;;;10.96;75.20
41515;BME280;27247;48.020;16.720;2023-02-20T10:45:41;100546.53;;;10.90;76.03
41515;BME280;27247;48.020;16.720;2023-02-20T10:49:59;100537.84;;;10.88;75.79
41515;BME280;27247;48.020;16.720;2023-02-20T10:54:21;100528.84;;;10.97;77.26
41515;BME280;27247;48.020;16.720;2023-02-20T11:02:58;100519.72;;;11.16;77.70
41515;BME280;27247;48.020;16.720;2023-02-20T11:07:14;100505.38;;;11.25;75.97
41515;BME280;27247;48.020;16.720;2023-02-20T11:11:32;100498.69;;;11.29;73.19
41515;BME280;27247;48.020;16.720;2023-02-20T11:15:45;100496.88;;;11.38;76.93
41515;BME280;27247;48.020;16.720;2023-02-20T11:19:58;100497.09;;;11.61;75.32
41515;BME280;27247;48.020;16.720;2023-02-20T11:28:33;100472.53;;;11.81;74.35
41515;BME280;27247;48.020;16.720;2023-02-20T11:32:45;100459.31;;;11.88;74.61
41515;BME280;27247;48.020;16.720;2023-02-20T11:37:04;100467.81;;;11.75;71.85
41515;BME280;27247;48.020;16.720;2023-02-20T11:41:22;100478.38;;;11.77;71.58
41515;BME280;27247;48.020;16.720;2023-02-20T11:45:33;100455.97;;;11.78;72.54
41515;BME280;27247;48.020;16.720;2023-02-20T11:49:44;100446.41;;;11.75;73.28
41515;BME280;27247;48.020;16.720;2023-02-20T11:58:33;100428.16;;;11.63;72.29
41515;BME280;27247;48.020;16.720;2023-02-20T12:02:53;100415.78;;;11.70;73.91
41515;BME280;27247;48.020;16.720;2023-02-20T12:11:27;100393.69;;;11.76;70.84
41515;BME280;27247;48.020;16.720;2023-02-20T12:15:38;100405.94;;;11.78;69.84
41515;BME280;27247;48.020;16.720;2023-02-20T12:37:55;100357.84;;;12.01;68.78
41515;BME280;27247;48.020;16.720;2023-02-20T12:42:27;100345.94;;;12.04;70.33
41515;BME280;27247;48.020;16.720;2023-02-20T12:47:10;100355.66;;;12.05;67.71
41515;BME280;27247;48.020;16.720;2023-02-20T12:56:26;100344.09;;;12.04;66.92
41515;BME280;27247;48.020;16.720;2023-02-20T13:00:42;100338.22;;;12.09;67.72
41515;BME280;27247;48.020;16.720;2023-02-20T13:04:56;100319.31;;;12.10;68.20
41515;BME280;27247;48.020;16.720;2023-02-20T13:09:19;100314.91;;;12.18;67.72
41515;BME280;27247;48.020;16.720;2023-02-20T13:22:26;100303.25;;;12.41;66.89
41515;BME280;27247;48.020;16.720;2023-02-20T13:31:20;100296.44;;;12.62;66.56
41515;BME280;27247;48.020;16.720;2023-02-20T13:35:49;100281.69;;;12.66;65.05
41515;BME280;27247;48.020;16.720;2023-02-20T13:48:49;100265.47;;;12.82;62.19
41515;BME280;27247;48.020;16.720;2023-02-20T13:53:00;100267.00;;;12.76;62.72
41515;BME280;27247;48.020;16.720;2023-02-20T13:57:16;100261.66;;;12.76;62.48
41515;BME280;27247;48.020;16.720;2023-02-20T14:01:27;100250.44;;;12.73;63.93
41515;BME280;27247;48.020;16.720;2023-02-20T14:05:38;100256.34;;;12.68;65.03
41515;BME280;27247;48.020;16.720;2023-02-20T14:10:02;100264.75;;;12.65;64.51
41515;BME280;27247;48.020;16.720;2023-02-20T14:14:36;100249.13;;;12.69;64.37
41515;BME280;27247;48.020;16.720;2023-02-20T14:18:48;100242.22;;;12.74;65.64
41515;BME280;27247;48.020;16.720;2023-02-20T14:27:28;100235.31;;;12.80;65.39
41515;BME280;27247;48.020;16.720;2023-02-20T14:31:38;100228.75;;;12.83;64.67
41515;BME280;27247;48.020;16.720;2023-02-20T14:36:02;100235.97;;;12.82;65.99
41515;BME280;27247;48.020;16.720;2023-02-20T14:40:36;100223.09;;;12.77;65.17
41515;BME280;27247;48.020;16.720;2023-02-20T14:44:58;100229.84;;;12.73;61.93
41515;BME280;27247;48.020;16.720;2023-02-20T14:49:13;100224.47;;;12.73;62.96
41515;BME280;27247;48.020;16.720;2023-02-20T14:53:23;100212.84;;;12.81;63.60
41515;BME280;27247;48.020;16.720;2023-02-20T14:57:34;100202.66;;;12.76;63.46
41515;BME280;27247;48.020;16.720;2023-02-20T15:01:44;100202.47;;;12.78;65.14
41515;BME280;27247;48.020;16.720;2023-02-20T15:06:02;100199.31;;;12.74;65.73
41515;BME280;27247;48.020;16.720;2023-02-20T15:14:43;100179.31;;;12.62;65.49
41515;BME280;27247;48.020;16.720;2023-02-20T15:18:54;100180.22;;;12.55;65.64
41515;BME280;27247;48.020;16.720;2023-02-20T15:27:33;100171.78;;;12.35;67.86
41515;BME280;27247;48.020;16.720;2023-02-20T15:31:45;100164.16;;;12.24;69.19
41515;BME280;27247;48.020;16.720;2023-02-20T15:35:56;100162.56;;;12.14;70.69
41515;BME280;27247;48.020;16.720;2023-02-20T15:40:29;100162.31;;;12.01;70.78
41515;BME280;27247;48.020;16.720;2023-02-20T15:44:40;100156.34;;;11.91;71.37
41515;BME280;27247;48.020;16.720;2023-02-20T15:48:50;100155.72;;;11.81;70.98
41515;BME280;27247;48.020;16.720;2023-02-20T15:53:01;100146.91;;;11.64;70.51
41515;BME280;27247;48.020;16.720;2023-02-20T15:57:15;100147.41;;;11.68;69.64
41515;BME280;27247;48.020;16.720;2023-02-20T16:01:26;100143.09;;;11.59;71.47
41515;BME280;27247;48.020;16.720;2023-02-20T16:05:36;100137.81;;;11.34;70.93
41515;BME280;27247;48.020;16.720;2023-02-20T16:09:48;100132.81;;;11.31;70.76
41515;BME280;27247;48.020;16.720;2023-02-20T16:14:00;100127.47;;;11.31;70.82
41515;BME280;27247;48.020;16.720;2023-02-20T16:18:11;100126.03;;;11.12;70.59
41515;BME280;27247;48.020;16.720;2023-02-20T16:22:22;100124.47;;;11.26;68.17
41515;BME280;27247;48.020;16.720;2023-02-20T16:26:33;100126.19;;;11.11;67.99
41515;BME280;27247;48.020;16.720;2023-02-20T16:30:45;100122.53;;;11.12;68.18
41515;BME280;27247;48.020;16.720;2023-02-20T16:34:57;100121.75;;;10.87;69.14
41515;BME280;27247;48.020;16.720;2023-02-20T16:39:08;100108.41;;;10.71;70.20
41515;BME280;27247;48.020;16.720;2023-02-20T16:43:20;100115.44;;;10.55;71.02
41515;BME280;27247;48.020;16.720;2023-02-20T16:47:31;100105.44;;;10.41;70.67
41515;BME280;27247;48.020;16.720;2023-02-20T16:51:42;100106.44;;;10.24;71.74
41515;BME280;27247;48.020;16.720;2023-02-20T16:55:58;100100.69;;;9.95;72.32
41515;BME280;27247;48.020;16.720;2023-02-20T17:00:13;100112.72;;;9.90;73.25
41515;BME280;27247;48.020;16.720;2023-02-20T17:04:24;100100.34;;;9.73;73.55
41515;BME280;27247;48.020;16.720;2023-02-20T17:08:35;100111.84;;;9.82;70.23
41515;BME280;27247;48.020;16.720;2023-02-20T17:12:46;100112.72;;;9.90;68.87
41515;BME280;27247;48.020;16.720;2023-02-20T17:16:57;100094.03;;;10.15;66.20
41515;BME280;27247;48.020;16.720;2023-02-20T17:21:09;100089.41;;;10.33;65.98
41515;BME280;27247;48.020;16.720;2023-02-20T17:25:22;100091.38;;;10.39;66.11
41515;BME280;27247;48.020;16.720;2023-02-20T17:29:33;100101.59;;;10.60;65.51
41515;BME280;27247;48.020;16.720;2023-02-20T17:33:45;100089.72;;;10.63;65.83
41515;BME280;27247;48.020;16.720;2023-02-20T17:37:56;100087.56;;;10.58;66.75
41515;BME280;27247;48.020;16.720;2023-02-20T17:42:07;100083.72;;;10.52;67.98
41515;BME280;27247;48.020;16.720;2023-02-20T17:46:18;100071.84;;;10.39;68.64
41515;BME280;27247;48.020;16.720;2023-02-20T17:50:30;100067.69;;;10.28;69.19
41515;BME280;27247;48.020;16.720;2023-02-20T17:54:45;100072.38;;;10.34;68.58
41515;BME280;27247;48.020;16.720;2023-02-20T17:58:55;100063.19;;;10.29;69.06
41515;BME280;27247;48.020;16.720;2023-02-20T18:03:06;100054.16;;;10.30;69.38
41515;BME280;27247;48.020;16.720;2023-02-20T18:07:17;100059.19;;;10.24;68.47
41515;BME280;27247;48.020;16.720;2023-02-20T18:11:29;100053.69;;;10.26;68.22
41515;BME280;27247;48.020;16.720;2023-02-20T18:15:40;100054.34;;;10.28;69.33
41515;BME280;27247;48.020;16.720;2023-02-20T18:19:52;100059.50;;;10.30;69.13
41515;BME280;27247;48.020;16.720;2023-02-20T18:24:04;100056.69;;;10.31;67.61
41515;BME280;27247;48.020;16.720;2023-02-20T18:28:16;100053.16;;;10.39;68.69
41515;BME280;27247;48.020;16.720;2023-02-20T18:32:27;100042.47;;;10.39;68.70
41515;BME280;27247;48.020;16.720;2023-02-20T18:36:37;100036.13;;;10.48;68.89
41515;BME280;27247;48.020;16.720;2023-02-20T18:40:48;100030.28;;;10.52;69.28
41515;BME280;27247;48.020;16.720;2023-02-20T18:44:59;100013.41;;;10.60;69.01
41515;BME280;27247;48.020;16.720;2023-02-20T18:49:11;100004.72;;;10.58;69.96
41515;BME280;27247;48.020;16.720;2023-02-20T18:53:22;100003.38;;;10.62;69.91
41515;BME280;27247;48.020;16.720;2023-02-20T18:57:32;99997.16;;;10.70;68.93
41515;BME280;27247;48.020;16.720;2023-02-20T19:01:43;99996.50;;;10.68;69.53
41515;BME280;27247;48.020;16.720;2023-02-20T19:05:54;100001.50;;;10.71;70.00
41515;BME280;27247;48.020;16.720;2023-02-20T19:10:05;99998.84;;;10.71;70.15
41515;BME280;27247;48.020;16.720;2023-02-20T19:14:17;100013.41;;;10.60;70.38
41515;BME280;27247;48.020;16.720;2023-02-20T19:18:28;100004.06;;;10.56;70.40
41515;BME280;27247;48.020;16.720;2023-02-20T19:22:39;100012.25;;;10.54;70.63
41515;BME280;27247;48.020;16.720;2023-02-20T19:26:50;99998.59;;;10.41;70.81
41515;BME280;27247;48.020;16.720;2023-02-20T19:31:04;99994.72;;;10.36;71.19
41515;BME280;27247;48.020;16.720;2023-02-20T19:35:15;99986.53;;;10.37;71.02
41515;BME280;27247;48.020;16.720;2023-02-20T19:39:26;99981.19;;;10.37;70.50
41515;BME280;27247;48.020;16.720;2023-02-20T19:43:37;99982.69;;;10.40;70.18
41515;BME280;27247;48.020;16.720;2023-02-20T19:47:48;99982.03;;;10.46;69.93
41515;BME280;27247;48.020;16.720;2023-02-20T19:52:00;99980.38;;;10.45;69.08
41515;BME280;27247;48.020;16.720;2023-02-20T19:56:13;99981.19;;;10.53;68.57
41515;BME280;27247;48.020;16.720;2023-02-20T20:00:23;99962.66;;;10.52;69.08
41515;BME280;27247;48.020;16.720;2023-02-20T20:04:34;99957.13;;;10.53;68.18
41515;BME280;27247;48.020;16.720;2023-02-20T20:08:45;99954.63;;;10.52;68.35
41515;BME280;27247;48.020;16.720;2023-02-20T20:12:57;99948.22;;;10.69;67.06
41515;BME280;27247;48.020;16.720;2023-02-20T20:17:07;99963.56;;;10.75;66.72
41515;BME280;27247;48.020;16.720;2023-02-20T20:21:19;99970.28;;;10.71;66.69
41515;BME280;27247;48.020;16.720;2023-02-20T20:25:31;99962.88;;;10.81;66.01
41515;BME280;27247;48.020;16.720;2023-02-20T20:29:42;99954.50;;;10.84;65.56
41515;BME280;27247;48.020;16.720;2023-02-20T20:33:54;99957.31;;;10.91;65.07
41515;BME280;27247;48.020;16.720;2023-02-20T20:38:05;99954.78;;;10.98;64.98
41515;BME280;27247;48.020;16.720;2023-02-20T20:42:18;99957.44;;;10.98;64.51
41515;BME280;27247;48.020;16.720;2023-02-20T20:46:36;99946.41;;;11.01;64.21
41515;BME280;27247;48.020;16.720;2023-02-20T20:50:48;99935.69;;;11.01;63.68
41515;BME280;27247;48.020;16.720;2023-02-20T20:55:00;99939.88;;;11.03;63.68
41515;BME280;27247;48.020;16.720;2023-02-20T20:59:11;99946.88;;;11.04;63.66
41515;BME280;27247;48.020;16.720;2023-02-20T21:03:22;99951.13;;;10.91;64.17
41515;BME280;27247;48.020;16.720;2023-02-20T21:07:33;99952.88;;;10.75;64.79
41515;BME280;27247;48.020;16.720;2023-02-20T21:11:43;99952.22;;;10.73;64.43
41515;BME280;27247;48.020;16.720;2023-02-20T21:15:54;99947.56;;;10.67;64.57
41515;BME280;27247;48.020;16.720;2023-02-20T21:20:06;99948.25;;;10.61;65.28
41515;BME280;27247;48.020;16.720;2023-02-20T21:24:17;99953.47;;;10.54;65.88
41515;BME280;27247;48.020;16.720;2023-02-20T21:28:28;99956.31;;;10.53;66.33
41515;BME280;27247;48.020;16.720;2023-02-20T21:32:39;99955.00;;;10.41;67.09
41515;BME280;27247;48.020;16.720;2023-02-20T21:36:49;99949.97;;;10.38;67.43
41515;BME280;27247;48.020;16.720;2023-02-20T21:41:03;99959.38;;;10.26;67.68
41515;BME280;27247;48.020;16.720;2023-02-20T21:45:14;99949.16;;;10.29;67.58
41515;BME280;27247;48.020;16.720;2023-02-20T21:49:26;99951.50;;;10.40;66.38
41515;BME280;27247;48.020;16.720;2023-02-20T21:53:37;99948.31;;;10.37;66.33
41515;BME280;27247;48.020;16.720;2023-02-20T21:57:48;99955.81;;;10.49;66.05
41515;BME280;27247;48.020;16.720;2023-02-20T22:01:58;99942.44;;;10.58;65.59
41515;BME280;27247;48.020;16.720;2023-02-20T22:06:08;99942.88;;;10.69;65.17
41515;BME280;27247;48.020;16.720;2023-02-20T22:10:19;99944.56;;;10.70;65.09
41515;BME280;27247;48.020;16.720;2023-02-20T22:14:47;99939.84;;;10.72;65.05
41515;BME280;27247;48.020;16.720;2023-02-20T22:19:16;99940.03;;;10.71;65.14
41515;BME280;27247;48.020;16.720;2023-02-20T22:23:45;99936.50;;;10.78;65.22
41515;BME280;27247;48.020;16.720;2023-02-20T22:28:15;99933.47;;;10.81;65.13
41515;BME280;27247;48.020;16.720;2023-02-20T22:32:43;99928.47;;;10.78;65.56
41515;BME280;27247;48.020;16.720;2023-02-20T22:37:13;99933.28;;;10.83;66.37
41515;BME280;27247;48.020;16.720;2023-02-20T22:41:42;99920.09;;;10.81;66.10
41515;BME280;27247;48.020;16.720;2023-02-20T22:46:11;99917.25;;;10.83;65.96
41515;BME280;27247;48.020;16.720;2023-02-20T22:50:40;99922.44;;;10.84;65.99
41515;BME280;27247;48.020;16.720;2023-02-20T22:55:11;99920.09;;;10.81;66.33
41515;BME280;27247;48.020;16.720;2023-02-20T22:59:40;99923.25;;;10.85;66.42
41515;BME280;27247;48.020;16.720;2023-02-20T23:04:09;99925.75;;;10.86;65.76
41515;BME280;27247;48.020;16.720;2023-02-20T23:08:38;99924.25;;;10.84;66.41
41515;BME280;27247;48.020;16.720;2023-02-20T23:13:07;99926.28;;;10.82;66.69
41515;BME280;27247;48.020;16.720;2023-02-20T23:17:36;99929.31;;;10.79;66.90
41515;BME280;27247;48.020;16.720;2023-02-20T23:22:04;99934.69;;;10.71;67.55
41515;BME280;27247;48.020;16.720;2023-02-20T23:26:34;99920.00;;;10.67;67.39
41515;BME280;27247;48.020;16.720;2023-02-20T23:31:03;99923.22;;;10.62;67.38
41515;BME280;27247;48.020;16.720;2023-02-20T23:35:32;99936.41;;;10.64;67.55
41515;BME280;27247;48.020;16.720;2023-02-20T23:40:01;99936.91;;;10.59;67.63
41515;BME280;27247;48.020;16.720;2023-02-20T23:44:30;99932.88;;;10.63;67.07
41515;BME280;27247;48.020;16.720;2023-02-20T23:48:59;99929.38;;;10.63;66.85